Terminal Aerodrome Forecast
Issued by NWS Charleston, WV

Current Version | Previous Version | Graphics & Text | Print | Product List | Glossary On
Versions: 1 2 3 4 5 6 7 8 9 10 11 12 13 14 15 16 17 18 19 20 21 22 23 24 25 26 27
872
FTUS41 KRLX 041738
TAFBKW
TAF
KBKW 041738Z 0418/0518 14008KT P6SM -RA OVC040
     FM042300 14011G17KT 6SM -RA OVC015
     FM050400 17008KT 2SM -RA OVC003
     FM050900 25005KT 4SM BR OVC005
     FM051500 32005KT P6SM OVC015=

USA.gov is the U.S. government's official web portal to all federal, state and local government web resources and services.